Time;durP1;ratioP1;P1;durP2;ratioP2;P2;SDS_P1;SDS_P2;PMS_P1;PMS_P2;Temp;Humidity;BMP_temperature;BMP_pressure;BME280_temperature;BME280_humidity;BME280_pressure;Samples;Min_cycle;Max_cycle;Signal;HPM_P1;HPM_P2
2022/01/23 00:01:14;;;;;;;4.80;2.37;;;6.20;99.90;;;;;;5025008;28;20550;-52
2022/01/23 00:03:45;;;;;;;4.13;2.50;;;6.20;99.90;;;;;;5036224;28;20511;-51
2022/01/23 00:06:13;;;;;;;5.83;2.60;;;6.20;99.90;;;;;;5026725;28;20458;-51
2022/01/23 00:08:40;;;;;;;6.07;2.30;;;6.20;99.90;;;;;;5015727;28;20211;-51
2022/01/23 00:11:07;;;;;;;6.03;2.50;;;6.20;99.90;;;;;;5029118;28;20474;-52
2022/01/23 00:17:13;;;;;;;4.70;2.20;;;6.30;99.90;;;;;;5022192;28;20413;-51
2022/01/23 00:19:07;;;;;;;4.37;2.27;;;6.20;99.90;;;;;;5040165;28;20218;-52
2022/01/23 00:21:36;;;;;;;4.80;2.50;;;6.20;99.90;;;;;;5039109;28;20613;-45
2022/01/23 00:32:18;;;;;;;5.03;2.00;;;6.10;99.90;;;;;;5034540;28;20230;-45
2022/01/23 00:34:45;;;;;;;3.93;1.97;;;6.20;99.90;;;;;;5040736;28;20374;-48
2022/01/23 00:37:11;;;;;;;3.23;1.90;;;6.10;99.90;;;;;;5036643;28;20309;-48
2022/01/23 00:39:38;;;;;;;6.60;2.00;;;6.10;99.90;;;;;;5026448;28;20239;-48
2022/01/23 00:42:06;;;;;;;5.13;1.90;;;6.10;99.90;;;;;;5025497;28;20238;-51
2022/01/23 00:44:35;;;;;;;2.47;1.80;;;6.20;99.90;;;;;;5017934;28;20262;-52
2022/01/23 00:47:04;;;;;;;3.63;2.10;;;6.20;99.90;;;;;;5028688;28;20532;-52
2022/01/23 00:49:32;;;;;;;5.73;2.07;;;6.20;99.90;;;;;;5034099;28;20251;-51
2022/01/23 00:51:59;;;;;;;2.60;2.10;;;6.20;99.90;;;;;;5026209;28;20380;-52
2022/01/23 00:54:26;;;;;;;5.57;1.80;;;6.20;99.90;;;;;;5031589;28;20218;-48
2022/01/23 00:56:54;;;;;;;4.83;2.13;;;6.20;99.90;;;;;;5040601;28;20203;-48
2022/01/23 00:59:21;;;;;;;4.70;2.20;;;6.10;99.90;;;;;;5026784;28;20236;-48
2022/01/23 01:01:48;;;;;;;6.83;1.60;;;6.20;99.90;;;;;;5011464;28;20362;-48
2022/01/23 01:04:15;;;;;;;2.87;1.77;;;6.20;99.90;;;;;;5036680;28;20253;-47
2022/01/23 01:06:44;;;;;;;2.80;1.60;;;6.20;99.90;;;;;;5022005;28;20832;-48
2022/01/23 01:09:13;;;;;;;3.77;1.90;;;6.20;99.90;;;;;;5040026;28;20201;-47
2022/01/23 01:11:57;;;;;;;5.43;1.80;;;6.20;99.90;;;;;;5032758;28;20515;-48
2022/01/23 01:14:41;;;;;;;3.33;1.90;;;6.20;99.90;;;;;;5025812;28;20258;-48
2022/01/23 01:17:14;;;;;;;2.37;1.73;;;6.20;99.90;;;;;;5013564;28;20225;-48
2022/01/23 01:31:02;;;;;;;3.30;1.87;;;6.20;99.90;;;;;;5023854;28;20213;-48
2022/01/23 01:33:41;;;;;;;6.30;1.77;;;6.20;99.90;;;;;;5026815;28;20465;-48
2022/01/23 01:36:20;;;;;;;2.77;1.50;;;6.20;99.90;;;;;;5032639;28;20214;-48
2022/01/23 01:38:49;;;;;;;3.23;1.90;;;6.20;99.90;;;;;;5036054;28;21293;-48
2022/01/23 01:41:18;;;;;;;1.60;1.50;;;6.20;99.90;;;;;;5030895;28;20269;-47
2022/01/23 01:43:45;;;;;;;5.93;1.70;;;6.20;99.90;;;;;;5025825;28;20474;-48
2022/01/23 01:46:12;;;;;;;3.00;1.63;;;6.20;99.90;;;;;;5016093;28;20214;-47
2022/01/23 01:48:39;;;;;;;4.10;1.70;;;6.10;99.90;;;;;;5037990;28;20434;-48
2022/01/23 01:51:11;;;;;;;3.87;1.80;;;6.10;99.90;;;;;;5032918;28;20259;-48
2022/01/23 01:53:38;;;;;;;2.23;1.57;;;6.10;99.90;;;;;;5022732;28;20605;-48
2022/01/23 01:56:08;;;;;;;2.83;1.70;;;6.10;99.90;;;;;;5030377;28;20259;-48
2022/01/23 02:09:34;;;;;;;6.73;1.87;;;6.10;99.90;;;;;;5028837;28;20211;-48
2022/01/23 02:12:21;;;;;;;1.90;1.50;;;6.10;99.90;;;;;;5044871;28;20388;-47
2022/01/23 02:15:10;;;;;;;3.90;1.80;;;6.10;99.90;;;;;;5011551;28;20581;-48
2022/01/23 02:17:54;;;;;;;2.20;1.80;;;6.10;99.90;;;;;;5016014;28;20534;-47
2022/01/23 02:23:25;;;;;;;3.30;1.60;;;6.10;99.90;;;;;;5038541;28;20240;-48
2022/01/23 02:50:51;;;;;;;4.60;1.83;;;6.10;99.90;;;;;;4976964;28;20620;-45
2022/01/23 02:53:40;;;;;;;3.40;1.67;;;6.10;99.90;;;;;;5021997;28;20226;-48
2022/01/23 02:56:19;;;;;;;2.73;1.70;;;6.10;99.90;;;;;;5014179;28;22581;-48
2022/01/23 02:58:56;;;;;;;5.53;1.80;;;6.10;99.90;;;;;;5013849;28;20280;-48
2022/01/23 03:01:28;;;;;;;6.67;1.73;;;6.10;99.90;;;;;;5031338;28;20504;-48
2022/01/23 03:04:00;;;;;;;3.90;2.00;;;6.10;99.90;;;;;;5012358;28;20391;-48
2022/01/23 03:06:51;;;;;;;4.97;2.40;;;6.10;99.90;;;;;;5043379;28;20206;-47
2022/01/23 03:12:24;;;;;;;3.17;1.80;;;6.10;99.90;;;;;;5003573;28;20566;-48
2022/01/23 03:14:56;;;;;;;4.43;2.00;;;6.10;99.90;;;;;;5026000;28;20217;-47
2022/01/23 03:26:20;;;;;;;3.20;1.90;;;6.20;99.90;;;;;;5031199;28;20263;-52
2022/01/23 03:29:19;;;;;;;3.33;1.90;;;6.20;99.90;;;;;;5040714;28;20215;-52
2022/01/23 03:32:00;;;;;;;8.03;2.50;;;6.20;99.90;;;;;;5017110;28;20281;-52
2022/01/23 03:34:28;;;;;;;6.73;2.30;;;6.20;99.90;;;;;;5022553;28;20450;-51
2022/01/23 03:36:56;;;;;;;5.50;2.10;;;6.20;99.90;;;;;;5039690;28;20284;-52
2022/01/23 03:39:23;;;;;;;3.43;2.30;;;6.20;99.90;;;;;;5033599;28;20681;-51
2022/01/23 03:41:51;;;;;;;4.47;2.47;;;6.20;99.90;;;;;;5040744;28;20227;-48
2022/01/23 03:44:18;;;;;;;4.93;2.07;;;6.20;99.90;;;;;;5030105;28;20475;-47
2022/01/23 03:47:01;;;;;;;7.93;2.90;;;6.20;99.90;;;;;;5024113;28;20466;-47
2022/01/23 03:49:31;;;;;;;5.47;2.37;;;6.20;99.90;;;;;;5021552;28;20650;-47
2022/01/23 03:51:59;;;;;;;3.50;2.23;;;6.20;99.90;;;;;;5040150;28;20201;-47
2022/01/23 03:54:27;;;;;;;8.17;2.33;;;6.20;99.90;;;;;;5029163;28;20400;-47
2022/01/23 03:56:56;;;;;;;2.57;2.20;;;6.20;99.90;;;;;;5041333;28;20210;-48
2022/01/23 03:59:23;;;;;;;6.83;2.53;;;6.20;99.90;;;;;;5012370;28;20442;-47
2022/01/23 04:01:50;;;;;;;5.43;2.23;;;6.20;99.90;;;;;;5008921;28;20211;-47
2022/01/23 04:04:30;;;;;;;5.20;2.40;;;6.20;99.90;;;;;;5015771;28;20229;-47
2022/01/23 04:06:57;;;;;;;5.93;2.80;;;6.20;99.90;;;;;;5019498;28;20438;-52
2022/01/23 04:09:24;;;;;;;6.30;2.47;;;6.20;99.90;;;;;;5028306;28;20240;-52
2022/01/23 04:11:52;;;;;;;8.13;2.40;;;6.30;99.90;;;;;;5020918;28;20234;-51
2022/01/23 04:14:22;;;;;;;5.23;2.23;;;6.30;99.90;;;;;;5032973;28;20236;-52
2022/01/23 04:20:01;;;;;;;4.73;2.50;;;6.30;99.90;;;;;;4985330;28;20218;-52
2022/01/23 04:33:48;;;;;;;6.40;2.50;;;6.30;99.90;;;;;;5044347;28;20228;-52
2022/01/23 05:01:12;;;;;;;7.10;2.70;;;6.30;99.90;;;;;;5082337;28;20413;-52
2022/01/23 05:04:08;;;;;;;8.27;3.23;;;6.30;99.90;;;;;;5077591;28;20234;-51
2022/01/23 05:06:42;;;;;;;3.53;2.47;;;6.30;99.90;;;;;;5081620;27;20628;-52
2022/01/23 05:09:10;;;;;;;9.20;2.97;;;6.30;99.90;;;;;;5081012;28;20227;-52
2022/01/23 05:11:42;;;;;;;6.00;2.90;;;6.30;99.90;;;;;;5085187;28;22805;-52
2022/01/23 05:14:10;;;;;;;8.73;3.20;;;6.30;99.90;;;;;;5091996;28;20231;-52
2022/01/23 05:16:37;;;;;;;3.70;2.67;;;6.30;99.90;;;;;;5089274;28;20278;-52
2022/01/23 05:19:04;;;;;;;5.30;2.70;;;6.30;99.90;;;;;;5078136;28;20230;-52
2022/01/23 05:24:36;;;;;;;7.93;3.00;;;6.30;99.90;;;;;;5019062;28;20939;-52
2022/01/23 05:27:06;;;;;;;7.07;3.10;;;6.30;99.90;;;;;;5032527;28;20213;-52
2022/01/23 05:29:34;;;;;;;7.53;3.20;;;6.30;99.90;;;;;;5061300;28;20232;-52
2022/01/23 05:32:01;;;;;;;8.00;2.80;;;6.40;99.90;;;;;;5098453;28;20241;-52
2022/01/23 05:34:28;;;;;;;7.43;2.77;;;6.40;99.90;;;;;;5075393;28;20581;-52
2022/01/23 05:36:55;;;;;;;6.23;3.10;;;6.40;99.90;;;;;;5100062;27;20240;-52
2022/01/23 05:39:24;;;;;;;7.60;3.50;;;6.40;99.90;;;;;;5084077;28;20531;-53
2022/01/23 05:41:58;;;;;;;3.70;2.70;;;6.40;99.90;;;;;;5098075;28;20230;-52
2022/01/23 05:44:25;;;;;;;6.10;3.03;;;6.40;99.90;;;;;;5094189;28;20343;-52
2022/01/23 05:46:52;;;;;;;8.53;3.50;;;6.40;99.90;;;;;;5077708;28;20202;-52
2022/01/23 05:49:19;;;;;;;4.53;2.80;;;6.40;99.90;;;;;;5087069;28;20298;-52
2022/01/23 05:51:46;;;;;;;6.87;2.90;;;6.30;99.90;;;;;;5091710;28;20235;-52
2022/01/23 05:54:13;;;;;;;6.97;2.83;;;6.30;99.90;;;;;;5082043;28;20262;-51
2022/01/23 05:56:39;;;;;;;5.13;3.00;;;6.30;99.90;;;;;;5098937;28;20275;-52
2022/01/23 05:59:07;;;;;;;5.30;2.70;;;6.30;99.90;;;;;;5097593;28;20299;-53
2022/01/23 06:01:34;;;;;;;7.87;2.93;;;6.20;99.90;;;;;;5074364;28;20363;-51
2022/01/23 06:04:01;;;;;;;8.87;3.10;;;6.20;99.90;;;;;;5062321;28;20420;-53
2022/01/23 06:06:28;;;;;;;7.50;3.27;;;6.20;99.90;;;;;;5063552;28;20750;-52
2022/01/23 06:08:55;;;;;;;4.13;2.90;;;6.20;99.90;;;;;;5083841;28;20233;-52
2022/01/23 06:11:22;;;;;;;9.93;2.67;;;6.30;99.90;;;;;;5060337;28;20242;-52
2022/01/23 06:13:49;;;;;;;9.57;3.13;;;6.30;99.90;;;;;;5071848;28;20303;-52
2022/01/23 06:16:17;;;;;;;10.27;2.80;;;6.30;99.90;;;;;;5074068;28;20220;-51
2022/01/23 06:18:45;;;;;;;6.50;3.00;;;6.30;99.90;;;;;;5049242;28;20834;-53
2022/01/23 06:21:16;;;;;;;3.80;2.70;;;6.30;99.90;;;;;;5076301;28;20394;-52
2022/01/23 06:23:43;;;;;;;4.50;2.60;;;6.40;99.90;;;;;;5085006;28;20541;-52
2022/01/23 06:26:10;;;;;;;3.97;2.80;;;6.40;99.90;;;;;;5070608;28;20218;-52
2022/01/23 06:28:45;;;;;;;4.57;2.80;;;6.30;99.90;;;;;;5084897;28;20398;-53
2022/01/23 06:31:12;;;;;;;4.33;2.67;;;6.30;99.90;;;;;;5080579;28;20207;-52
2022/01/23 06:33:40;;;;;;;6.17;2.77;;;6.30;99.90;;;;;;5057902;28;20586;-53
2022/01/23 06:36:07;;;;;;;12.83;3.10;;;6.30;99.90;;;;;;5073717;28;20231;-52
2022/01/23 06:38:35;;;;;;;6.30;2.77;;;6.30;99.90;;;;;;5072155;28;20534;-53
2022/01/23 06:41:03;;;;;;;6.87;2.20;;;6.30;99.90;;;;;;5070906;28;20216;-53
2022/01/23 06:43:29;;;;;;;4.97;2.80;;;6.20;99.90;;;;;;5079835;28;20224;-51
2022/01/23 06:45:56;;;;;;;5.80;2.37;;;6.30;99.90;;;;;;5086584;28;20223;-53
2022/01/23 06:48:23;;;;;;;4.53;2.60;;;6.30;99.90;;;;;;5074384;28;20211;-52
2022/01/23 06:50:52;;;;;;;5.73;2.40;;;6.20;99.90;;;;;;5061113;28;23100;-52
2022/01/23 06:53:18;;;;;;;4.83;2.40;;;6.30;99.90;;;;;;5080685;28;20255;-51
2022/01/23 06:55:45;;;;;;;5.63;3.63;;;6.20;99.90;;;;;;5062365;28;20461;-52
2022/01/23 06:58:12;;;;;;;5.73;2.47;;;6.30;99.90;;;;;;5086801;28;20275;-52
2022/01/23 07:00:39;;;;;;;4.60;2.13;;;6.30;99.90;;;;;;5076832;28;20404;-52
2022/01/23 07:03:06;;;;;;;4.70;2.20;;;6.40;99.90;;;;;;5053579;28;20227;-53
2022/01/23 07:05:32;;;;;;;5.10;2.40;;;6.30;99.90;;;;;;5064898;28;21310;-52
2022/01/23 07:08:01;;;;;;;6.57;2.30;;;6.30;99.90;;;;;;5075964;28;20550;-52
2022/01/23 07:10:27;;;;;;;4.23;2.20;;;6.30;99.90;;;;;;5060353;28;20581;-53
2022/01/23 07:12:54;;;;;;;6.10;2.80;;;6.30;99.90;;;;;;5069571;28;20258;-52
2022/01/23 07:15:21;;;;;;;4.43;2.43;;;6.30;99.90;;;;;;5081350;28;20202;-52
2022/01/23 07:17:48;;;;;;;9.37;2.73;;;6.30;99.90;;;;;;5053722;28;20200;-53
2022/01/23 07:20:15;;;;;;;4.57;2.80;;;6.30;99.90;;;;;;5068957;28;20223;-52
2022/01/23 07:22:42;;;;;;;7.30;2.70;;;6.30;99.90;;;;;;5056889;28;20316;-52
2022/01/23 07:25:10;;;;;;;3.13;2.73;;;6.30;99.90;;;;;;5066670;28;20425;-52
2022/01/23 07:27:42;;;;;;;4.60;2.67;;;6.30;99.90;;;;;;5053707;28;20284;-53
2022/01/23 07:30:22;;;;;;;7.80;2.27;;;6.40;99.90;;;;;;5077628;28;20291;-53
2022/01/23 07:32:49;;;;;;;7.50;2.80;;;6.40;99.90;;;;;;5061615;28;20234;-51
2022/01/23 07:35:16;;;;;;;10.10;3.00;;;6.40;99.90;;;;;;5059097;28;20576;-52
2022/01/23 07:37:43;;;;;;;5.47;2.37;;;6.40;99.90;;;;;;5045177;28;20996;-52
2022/01/23 07:40:12;;;;;;;10.13;3.47;;;6.40;99.90;;;;;;5065230;28;20449;-52
2022/01/23 07:42:40;;;;;;;5.47;2.30;;;6.40;99.90;;;;;;5053061;28;20491;-52
2022/01/23 07:45:08;;;;;;;9.13;2.57;;;6.40;99.90;;;;;;5065369;28;20415;-53
2022/01/23 07:47:35;;;;;;;3.63;2.30;;;6.40;99.90;;;;;;5067278;28;20655;-52
2022/01/23 07:50:03;;;;;;;5.30;2.80;;;6.30;99.90;;;;;;5076804;28;20628;-56
2022/01/23 07:52:32;;;;;;;5.40;2.57;;;6.30;99.90;;;;;;5053095;28;20232;-52
2022/01/23 07:54:59;;;;;;;5.30;2.30;;;6.40;99.90;;;;;;5074780;28;20200;-53
2022/01/23 07:57:28;;;;;;;4.70;2.60;;;6.40;99.90;;;;;;5083655;28;20418;-54
2022/01/23 07:59:54;;;;;;;4.13;2.47;;;6.40;99.90;;;;;;5056807;28;20202;-52
2022/01/23 08:02:23;;;;;;;5.90;2.57;;;6.40;99.90;;;;;;5074263;28;21243;-53
2022/01/23 08:04:49;;;;;;;4.17;2.50;;;6.40;99.90;;;;;;5069616;28;20204;-53
2022/01/23 08:07:21;;;;;;;5.67;2.80;;;6.40;99.90;;;;;;5063737;28;20284;-53
2022/01/23 08:09:48;;;;;;;4.50;2.53;;;6.40;99.90;;;;;;5057482;28;20606;-53
2022/01/23 08:12:17;;;;;;;7.00;2.57;;;6.40;99.90;;;;;;5068069;28;20240;-53
2022/01/23 08:14:46;;;;;;;9.90;2.53;;;6.40;99.90;;;;;;5043895;28;20530;-52
2022/01/23 08:17:12;;;;;;;5.03;2.67;;;6.50;99.90;;;;;;5074460;28;20205;-53
2022/01/23 08:19:39;;;;;;;3.63;2.30;;;6.50;99.90;;;;;;5058444;28;20205;-53
2022/01/23 08:22:06;;;;;;;5.17;2.53;;;6.50;99.90;;;;;;5040047;28;20610;-52
2022/01/23 08:24:33;;;;;;;5.27;2.47;;;6.50;99.90;;;;;;5057205;28;20299;-53
2022/01/23 08:27:00;;;;;;;9.03;2.80;;;6.50;99.90;;;;;;5047519;28;20273;-52
2022/01/23 08:29:27;;;;;;;6.73;2.77;;;6.60;99.90;;;;;;5050956;28;20223;-52
2022/01/23 08:31:55;;;;;;;8.17;2.57;;;6.60;99.90;;;;;;5050917;28;20200;-53
2022/01/23 08:34:22;;;;;;;4.63;2.53;;;6.60;99.90;;;;;;5059479;28;20307;-52
2022/01/23 08:36:49;;;;;;;5.20;2.80;;;6.60;99.90;;;;;;5067059;28;20201;-52
2022/01/23 08:39:21;;;;;;;3.17;2.50;;;6.60;99.90;;;;;;5075252;28;20893;-52
2022/01/23 08:41:51;;;;;;;4.67;2.50;;;6.60;99.90;;;;;;5070278;28;20245;-52
2022/01/23 08:44:18;;;;;;;12.47;3.13;;;6.70;99.90;;;;;;5071704;28;20287;-52
2022/01/23 08:46:46;;;;;;;2.90;2.30;;;6.70;99.90;;;;;;5061425;28;20705;-53
2022/01/23 08:49:16;;;;;;;4.23;2.47;;;6.70;99.90;;;;;;5066440;28;20331;-53
2022/01/23 08:51:43;;;;;;;4.37;2.40;;;6.70;99.90;;;;;;5055773;28;20283;-52
2022/01/23 08:54:10;;;;;;;5.83;2.67;;;6.70;99.90;;;;;;5056158;28;20545;-53
2022/01/23 08:56:38;;;;;;;5.07;2.73;;;6.80;99.90;;;;;;5058259;28;20213;-53
2022/01/23 08:59:06;;;;;;;3.20;2.27;;;6.80;99.90;;;;;;5081003;28;20226;-53
2022/01/23 09:01:35;;;;;;;9.97;2.83;;;6.80;99.90;;;;;;5052959;28;20215;-53
2022/01/23 09:04:04;;;;;;;4.60;1.97;;;6.80;99.90;;;;;;5083343;28;20654;-53
2022/01/23 09:06:32;;;;;;;3.57;2.30;;;6.90;99.90;;;;;;5068909;28;20425;-52
2022/01/23 09:09:00;;;;;;;6.33;2.30;;;7.10;99.90;;;;;;5059189;28;20241;-53
2022/01/23 09:11:39;;;;;;;7.67;2.60;;;6.90;99.90;;;;;;5068408;28;20215;-53
2022/01/23 09:14:07;;;;;;;4.00;2.43;;;6.90;99.90;;;;;;5074281;28;20703;-53
2022/01/23 09:16:36;;;;;;;4.67;2.47;;;6.90;99.90;;;;;;5056014;28;20215;-53
2022/01/23 09:19:03;;;;;;;8.27;2.57;;;6.90;99.90;;;;;;5078509;28;20406;-53
2022/01/23 09:21:31;;;;;;;6.30;2.40;;;6.90;99.90;;;;;;5046676;28;20237;-53
2022/01/23 09:23:59;;;;;;;5.07;2.43;;;7.00;99.90;;;;;;5060404;28;20232;-53
2022/01/23 09:26:26;;;;;;;4.27;2.27;;;7.00;99.90;;;;;;5066731;28;20280;-52
2022/01/23 09:28:57;;;;;;;7.03;2.63;;;7.00;99.90;;;;;;5066257;28;20211;-52
2022/01/23 09:31:30;;;;;;;6.77;2.50;;;7.00;99.90;;;;;;5046648;28;20293;-53
2022/01/23 09:33:56;;;;;;;6.73;2.57;;;7.00;99.90;;;;;;5069785;28;20972;-52
2022/01/23 09:36:23;;;;;;;4.27;2.23;;;7.00;99.90;;;;;;5065364;28;20222;-52
2022/01/23 09:38:52;;;;;;;7.87;2.33;;;7.00;99.90;;;;;;5047359;28;20213;-53
2022/01/23 09:41:24;;;;;;;5.37;2.37;;;6.90;99.90;;;;;;5046712;28;20209;-52
2022/01/23 09:43:53;;;;;;;5.77;2.00;;;7.00;99.90;;;;;;5064069;28;20230;-51
2022/01/23 09:46:23;;;;;;;3.13;1.87;;;7.00;99.90;;;;;;5050844;28;20244;-52
2022/01/23 09:48:52;;;;;;;2.70;2.10;;;7.00;99.90;;;;;;5070253;28;20226;-51
2022/01/23 09:51:20;;;;;;;3.47;2.03;;;7.00;99.90;;;;;;5059709;28;21121;-53
2022/01/23 09:53:47;;;;;;;4.97;2.00;;;7.00;99.90;;;;;;5075045;28;20622;-53
2022/01/23 09:56:17;;;;;;;4.73;1.93;;;7.00;99.90;;;;;;5053022;28;20738;-51
2022/01/23 09:58:44;;;;;;;2.80;1.70;;;7.10;99.90;;;;;;5071835;28;20328;-52
2022/01/23 10:01:11;;;;;;;3.83;1.50;;;7.10;99.90;;;;;;5075384;28;20282;-52
2022/01/23 10:03:38;;;;;;;4.70;1.70;;;7.10;99.90;;;;;;5040038;28;20229;-53
2022/01/23 10:06:08;;;;;;;1.93;1.60;;;7.10;99.90;;;;;;5068649;28;20563;-53
2022/01/23 10:08:37;;;;;;;3.43;1.70;;;7.10;99.90;;;;;;5079190;28;20538;-53
2022/01/23 10:11:09;;;;;;;8.43;2.20;;;7.10;99.90;;;;;;5058385;28;20599;-52
2022/01/23 10:13:38;;;;;;;5.13;1.90;;;7.20;99.90;;;;;;5073325;28;20797;-52
2022/01/23 10:16:05;;;;;;;6.10;2.07;;;7.20;99.90;;;;;;5084032;28;20211;-52
2022/01/23 10:18:32;;;;;;;6.67;2.10;;;7.20;99.90;;;;;;5047816;28;20214;-52
2022/01/23 10:20:59;;;;;;;3.40;2.10;;;7.20;99.90;;;;;;5069163;28;20213;-53
2022/01/23 10:23:27;;;;;;;4.53;1.97;;;7.30;99.90;;;;;;5077828;28;20296;-52
2022/01/23 10:25:54;;;;;;;4.00;2.17;;;7.20;99.90;;;;;;5057275;28;20204;-52
2022/01/23 10:28:28;;;;;;;4.37;1.60;;;7.30;99.90;;;;;;5086277;28;20275;-52
2022/01/23 10:30:58;;;;;;;5.83;1.93;;;7.30;99.90;;;;;;5077272;28;20227;-52
2022/01/23 10:33:27;;;;;;;2.57;1.87;;;7.30;99.90;;;;;;5069721;28;20231;-52
2022/01/23 10:35:56;;;;;;;2.27;1.60;;;7.30;99.90;;;;;;5075676;28;20210;-53
2022/01/23 10:38:26;;;;;;;4.57;1.70;;;7.30;99.90;;;;;;5066998;28;20200;-53
2022/01/23 10:41:06;;;;;;;2.83;2.20;;;7.30;99.90;;;;;;5061599;28;20192;-52
2022/01/23 10:46:41;;;;;;;4.23;1.80;;;7.30;99.90;;;;;;5069191;28;20347;-53
2022/01/23 10:49:08;;;;;;;6.77;1.70;;;7.30;99.90;;;;;;5061500;28;20211;-55
2022/01/23 10:51:36;;;;;;;5.47;1.77;;;7.30;99.90;;;;;;5067591;28;20663;-52
2022/01/23 10:54:15;;;;;;;2.00;1.63;;;7.30;99.90;;;;;;5083844;28;20207;-52
2022/01/23 10:57:01;;;;;;;7.00;2.00;;;7.40;99.90;;;;;;5057618;28;20218;-52
2022/01/23 10:59:41;;;;;;;4.53;1.87;;;7.40;99.90;;;;;;5081926;28;20208;-53
2022/01/23 11:02:11;;;;;;;2.43;1.57;;;7.40;99.90;;;;;;5046248;28;20206;-52
2022/01/23 11:04:58;;;;;;;4.43;1.87;;;7.50;99.90;;;;;;5061577;28;20284;-53
2022/01/23 11:07:26;;;;;;;4.63;1.87;;;7.50;99.90;;;;;;5066993;28;20714;-53
2022/01/23 11:10:01;;;;;;;4.50;2.13;;;7.50;99.90;;;;;;5057661;28;20533;-52
2022/01/23 11:17:20;;;;;;;4.40;2.00;;;7.50;99.90;;;;;;5055947;28;21245;-52
2022/01/23 11:18:33;;;;;;;3.47;1.77;;;7.50;99.90;;;;;;5044516;28;21150;-52
2022/01/23 11:21:14;;;;;;;2.23;1.70;;;7.50;99.90;;;;;;5072890;28;20237;-52
2022/01/23 11:23:41;;;;;;;5.80;2.43;;;7.50;99.90;;;;;;5083388;28;20231;-52
2022/01/23 11:26:10;;;;;;;2.47;1.70;;;7.50;99.90;;;;;;5079204;28;20231;-52
2022/01/23 11:28:41;;;;;;;6.53;2.43;;;7.50;99.90;;;;;;5042961;28;20282;-52
2022/01/23 11:31:11;;;;;;;4.03;1.90;;;7.60;99.90;;;;;;5076031;28;20231;-52
2022/01/23 11:33:40;;;;;;;3.13;1.73;;;7.50;99.90;;;;;;5065577;28;20230;-53
2022/01/23 11:36:07;;;;;;;2.70;2.00;;;7.50;99.90;;;;;;5058028;28;20228;-52
2022/01/23 11:38:36;;;;;;;4.43;1.80;;;7.60;99.90;;;;;;5064151;28;20273;-52
2022/01/23 11:55:01;;;;;;;4.17;1.87;;;7.70;99.90;;;;;;5076523;28;20837;-52
2022/01/23 11:57:44;;;;;;;2.40;1.63;;;7.70;99.90;;;;;;5064593;28;20206;-52
2022/01/23 12:00:17;;;;;;;4.30;1.77;;;7.80;99.90;;;;;;5050335;28;20209;-52
2022/01/23 12:02:44;;;;;;;2.33;1.73;;;7.80;99.90;;;;;;5068557;28;20603;-53
2022/01/23 12:05:25;;;;;;;3.47;1.83;;;7.80;99.90;;;;;;5052928;28;20214;-52
2022/01/23 12:08:31;;;;;;;4.40;1.80;;;7.80;99.90;;;;;;5059235;28;20207;-52
2022/01/23 12:17:39;;;;;;;2.67;2.00;;;8.00;99.90;;;;;;5074663;28;20309;-53
2022/01/23 12:20:07;;;;;;;2.37;1.80;;;8.00;99.90;;;;;;5052622;28;20210;-53
2022/01/23 12:22:43;;;;;;;3.10;1.87;;;7.90;99.90;;;;;;5052808;28;20261;-53
2022/01/23 12:25:16;;;;;;;4.33;1.90;;;8.00;99.90;;;;;;5064229;28;20208;-53
2022/01/23 12:27:43;;;;;;;6.20;1.60;;;8.00;99.90;;;;;;5066063;28;20207;-51
2022/01/23 12:30:33;;;;;;;2.10;1.70;;;8.00;99.90;;;;;;5038457;28;20210;-52
2022/01/23 12:33:32;;;;;;;2.77;1.80;;;8.00;99.90;;;;;;5029818;28;20223;-52
2022/01/23 12:36:03;;;;;;;3.50;1.63;;;8.00;99.90;;;;;;5048277;28;20388;-52
2022/01/23 12:38:37;;;;;;;3.17;1.50;;;8.00;99.90;;;;;;5036317;28;20210;-53
2022/01/23 12:41:29;;;;;;;4.17;1.60;;;8.00;99.90;;;;;;5058351;28;20321;-52
2022/01/23 12:43:59;;;;;;;1.80;1.70;;;8.00;99.90;;;;;;5050160;28;20232;-52
2022/01/23 12:46:38;;;;;;;2.03;1.67;;;8.10;99.90;;;;;;5060727;28;20199;-52
2022/01/23 12:49:21;;;;;;;2.67;1.90;;;8.00;99.90;;;;;;5067922;28;20310;-52
2022/01/23 12:51:50;;;;;;;4.27;1.90;;;8.00;99.90;;;;;;5040066;28;20220;-52
2022/01/23 12:54:34;;;;;;;2.43;1.83;;;8.00;99.90;;;;;;5050821;28;20228;-53
2022/01/23 12:57:10;;;;;;;2.60;1.70;;;8.00;99.90;;;;;;5066358;28;20276;-52
2022/01/23 12:59:38;;;;;;;3.93;1.70;;;8.00;99.90;;;;;;5049621;28;20202;-52
2022/01/23 13:02:12;;;;;;;2.20;1.77;;;8.00;99.90;;;;;;5051873;28;20197;-52
2022/01/23 13:04:42;;;;;;;2.37;1.87;;;8.00;99.90;;;;;;5041254;28;20207;-52
2022/01/23 13:07:17;;;;;;;3.07;2.77;;;7.90;99.90;;;;;;5028841;28;20204;-53
2022/01/23 13:09:52;;;;;;;5.73;1.90;;;8.00;99.90;;;;;;5045867;28;20214;-52
2022/01/23 13:12:36;;;;;;;2.03;1.60;;;8.00;99.90;;;;;;5078471;28;20305;-53
2022/01/23 13:18:14;;;;;;;2.43;1.90;;;8.00;99.90;;;;;;5009027;28;20300;-53
2022/01/23 13:32:18;;;;;;;2.47;1.93;;;8.00;99.90;;;;;;5035263;28;20216;-52
2022/01/23 13:34:50;;;;;;;2.97;1.90;;;8.00;99.90;;;;;;5056653;28;20290;-53
2022/01/23 13:37:19;;;;;;;2.63;1.77;;;8.00;99.90;;;;;;5059518;28;20208;-52
2022/01/23 13:39:50;;;;;;;2.97;1.73;;;8.00;99.90;;;;;;5030237;28;21186;-52
2022/01/23 13:53:47;;;;;;;3.50;2.03;;;7.90;99.90;;;;;;5048327;28;20236;-52
2022/01/23 13:59:12;;;;;;;2.00;1.80;;;7.80;99.90;;;;;;5053838;28;20215;-53
2022/01/23 14:01:50;;;;;;;3.93;1.70;;;7.80;99.90;;;;;;5057479;28;20195;-53
2022/01/23 14:04:19;;;;;;;3.67;2.00;;;7.80;99.90;;;;;;5057758;28;20235;-53
2022/01/23 14:06:46;;;;;;;3.27;1.93;;;7.80;99.90;;;;;;5070006;28;20669;-54
2022/01/23 14:09:15;;;;;;;6.13;2.03;;;7.80;99.90;;;;;;5061849;28;20275;-53
2022/01/23 14:11:43;;;;;;;3.47;2.00;;;7.80;99.90;;;;;;5028820;28;20220;-53
2022/01/23 14:14:17;;;;;;;3.37;1.80;;;7.80;99.90;;;;;;5050739;28;20307;-53
2022/01/23 14:16:46;;;;;;;4.07;1.87;;;7.70;99.90;;;;;;5067376;28;20200;-53
2022/01/23 14:19:18;;;;;;;3.07;1.40;;;7.80;99.90;;;;;;5068421;28;20210;-54
2022/01/23 14:21:47;;;;;;;3.63;1.40;;;7.70;99.90;;;;;;5058353;28;20205;-53
2022/01/23 14:24:22;;;;;;;4.00;2.10;;;7.70;99.90;;;;;;5063512;28;20225;-56
2022/01/23 14:27:01;;;;;;;1.93;1.40;;;7.70;99.90;;;;;;5053891;28;20221;-54
2022/01/23 14:29:30;;;;;;;1.87;1.70;;;7.70;99.90;;;;;;5034525;28;20207;-53
2022/01/23 14:32:06;;;;;;;1.97;1.53;;;7.70;99.90;;;;;;5061312;28;20372;-53
2022/01/23 14:34:33;;;;;;;4.03;1.60;;;7.70;99.90;;;;;;5078693;28;20234;-54
2022/01/23 14:37:03;;;;;;;9.53;1.70;;;7.70;99.90;;;;;;5063523;28;20208;-53
2022/01/23 14:39:30;;;;;;;1.93;1.20;;;7.70;99.90;;;;;;5066600;28;20216;-53
2022/01/23 14:42:14;;;;;;;2.23;1.47;;;7.70;99.90;;;;;;5052054;28;20214;-53
2022/01/23 14:44:43;;;;;;;2.07;1.37;;;7.60;99.90;;;;;;5055311;28;20204;-54
2022/01/23 14:47:10;;;;;;;1.93;1.50;;;7.60;99.90;;;;;;5072174;28;20208;-54
2022/01/23 14:49:41;;;;;;;4.13;1.43;;;7.60;99.90;;;;;;5056341;28;20211;-54
2022/01/23 14:52:13;;;;;;;2.07;1.73;;;7.60;99.90;;;;;;5068251;28;20220;-54
2022/01/23 14:54:41;;;;;;;1.47;1.37;;;7.50;99.90;;;;;;5074978;28;20479;-54
2022/01/23 14:57:14;;;;;;;2.80;1.50;;;7.60;99.90;;;;;;5053983;28;20218;-54
2022/01/23 14:59:45;;;;;;;2.33;1.30;;;7.70;99.90;;;;;;5044673;28;20207;-53
2022/01/23 15:02:11;;;;;;;1.27;1.17;;;7.60;99.90;;;;;;5072559;28;20219;-52
2022/01/23 15:04:44;;;;;;;1.77;1.40;;;7.60;99.90;;;;;;5068459;28;20254;-53
2022/01/23 15:07:14;;;;;;;1.83;1.30;;;7.50;99.90;;;;;;5064049;28;20210;-54
2022/01/23 15:09:43;;;;;;;1.23;1.13;;;7.50;99.90;;;;;;5068374;28;20216;-53
2022/01/23 15:12:11;;;;;;;0.83;0.80;;;7.50;99.90;;;;;;5077906;28;20265;-53
2022/01/23 15:14:38;;;;;;;0.87;0.87;;;7.40;99.90;;;;;;5033279;28;21450;-54
2022/01/23 15:17:06;;;;;;;1.20;1.10;;;7.40;99.90;;;;;;5071665;28;20212;-53
2022/01/23 15:19:34;;;;;;;2.40;1.33;;;7.40;99.90;;;;;;5048948;28;20196;-54
2022/01/23 15:22:02;;;;;;;2.50;1.30;;;7.40;99.90;;;;;;5053663;28;20204;-54
2022/01/23 15:24:29;;;;;;;1.10;0.93;;;7.40;99.90;;;;;;5069815;28;20310;-53
2022/01/23 15:26:56;;;;;;;1.53;1.30;;;7.40;99.90;;;;;;5050085;28;20243;-53
2022/01/23 15:29:23;;;;;;;1.17;1.00;;;7.30;99.90;;;;;;5040716;28;20208;-54
2022/01/23 15:31:50;;;;;;;1.33;1.10;;;7.30;99.90;;;;;;5060653;28;20251;-54
2022/01/23 15:34:18;;;;;;;1.83;1.03;;;7.30;99.90;;;;;;5046955;28;20698;-53
2022/01/23 15:36:46;;;;;;;0.97;0.93;;;7.30;99.90;;;;;;5071287;28;20204;-54
2022/01/23 15:39:15;;;;;;;2.43;1.17;;;7.30;99.90;;;;;;5063925;28;20207;-53
2022/01/23 15:41:42;;;;;;;3.73;1.60;;;7.30;99.90;;;;;;5058517;28;20203;-53
2022/01/23 15:44:09;;;;;;;1.40;1.30;;;7.20;99.90;;;;;;5051911;28;20235;-53
2022/01/23 15:46:36;;;;;;;1.30;1.20;;;7.20;99.90;;;;;;5066840;28;20278;-53
2022/01/23 15:49:04;;;;;;;3.53;1.33;;;7.20;99.90;;;;;;5047038;28;20223;-53
2022/01/23 15:51:32;;;;;;;2.77;1.37;;;7.30;99.90;;;;;;5055203;28;20421;-53
2022/01/23 15:53:59;;;;;;;1.40;1.23;;;7.20;99.90;;;;;;5058629;28;20547;-53
2022/01/23 15:56:26;;;;;;;1.20;1.10;;;7.10;99.90;;;;;;5077623;28;20316;-52
2022/01/23 15:58:53;;;;;;;1.43;1.30;;;7.20;99.90;;;;;;5057266;28;20231;-53
2022/01/23 16:01:19;;;;;;;2.30;1.20;;;7.20;99.90;;;;;;5044817;28;20403;-54
2022/01/23 16:03:47;;;;;;;1.80;1.40;;;7.10;99.90;;;;;;5051080;28;20227;-53
2022/01/23 16:06:13;;;;;;;2.87;1.47;;;7.10;99.90;;;;;;5073318;28;20227;-53